Ashland, Kansas
Current Conditions -  °F | °C
As of 3:52 PM on Monday 26 Jan 2015 (Local Time) from KDDC Reporting Station
Clear Clear  
Wind Chill: 72°   Ceiling: Unl
Heat Index: 72°   Visibility: 10mi
Dew Point: 26°   Wind: 18mph
Humidity: 18%   Direction: 320°NW
Pressure: 30.07"   Gusts: NA
Location:  37.19°N, 99.77°W
Report Text: KDDC 262152Z AUTO 32016KT 10SM CLR 22/M03 A3007 RMK AO2 PK WND 32026/2107 SLP173 T02221033
Loading
Personal Weather Stations






























Interactive Weather Map New forecast layout! Learn more

10-Day Weather Forecast

Advertisements
Track Severe Weather on mobile